sensor_id;sensor_type;location;lat;lon;timestamp;P1;durP1;ratioP1;P2;durP2;ratioP2
7080;SDS011;3582;51.506;11.948;2023-04-19T00:00:37;6.32;;;5.68;;
7080;SDS011;3582;51.506;11.948;2023-04-19T00:03:04;6.18;;;5.50;;
7080;SDS011;3582;51.506;11.948;2023-04-19T00:05:30;9.23;;;6.97;;
7080;SDS011;3582;51.506;11.948;2023-04-19T00:07:56;7.60;;;6.68;;
7080;SDS011;3582;51.506;11.948;2023-04-19T00:10:22;10.90;;;6.93;;
7080;SDS011;3582;51.506;11.948;2023-04-19T00:12:48;8.83;;;6.20;;
7080;SDS011;3582;51.506;11.948;2023-04-19T00:15:14;5.50;;;5.00;;
7080;SDS011;3582;51.506;11.948;2023-04-19T00:17:40;7.17;;;6.53;;
7080;SDS011;3582;51.506;11.948;2023-04-19T00:20:07;7.82;;;7.10;;
7080;SDS011;3582;51.506;11.948;2023-04-19T00:22:34;9.15;;;6.55;;
7080;SDS011;3582;51.506;11.948;2023-04-19T00:25:00;7.53;;;6.32;;
7080;SDS011;3582;51.506;11.948;2023-04-19T00:27:26;10.07;;;7.00;;
7080;SDS011;3582;51.506;11.948;2023-04-19T00:29:52;11.27;;;6.90;;
7080;SDS011;3582;51.506;11.948;2023-04-19T00:32:18;8.27;;;6.67;;
7080;SDS011;3582;51.506;11.948;2023-04-19T00:34:44;8.93;;;6.50;;
7080;SDS011;3582;51.506;11.948;2023-04-19T00:37:10;7.68;;;6.88;;
7080;SDS011;3582;51.506;11.948;2023-04-19T00:39:36;6.77;;;6.07;;
7080;SDS011;3582;51.506;11.948;2023-04-19T00:42:02;6.18;;;5.40;;
7080;SDS011;3582;51.506;11.948;2023-04-19T00:44:28;8.40;;;6.60;;
7080;SDS011;3582;51.506;11.948;2023-04-19T00:46:55;11.73;;;7.10;;
7080;SDS011;3582;51.506;11.948;2023-04-19T00:49:21;11.63;;;7.97;;
7080;SDS011;3582;51.506;11.948;2023-04-19T00:51:48;8.82;;;7.85;;
7080;SDS011;3582;51.506;11.948;2023-04-19T00:54:14;10.45;;;7.28;;
7080;SDS011;3582;51.506;11.948;2023-04-19T00:56:40;8.80;;;7.33;;
7080;SDS011;3582;51.506;11.948;2023-04-19T00:59:06;9.77;;;7.20;;
7080;SDS011;3582;51.506;11.948;2023-04-19T01:01:32;9.20;;;8.00;;
7080;SDS011;3582;51.506;11.948;2023-04-19T01:03:59;10.18;;;7.38;;
7080;SDS011;3582;51.506;11.948;2023-04-19T01:06:25;16.88;;;9.27;;
7080;SDS011;3582;51.506;11.948;2023-04-19T01:08:52;11.50;;;9.07;;
7080;SDS011;3582;51.506;11.948;2023-04-19T01:11:18;13.53;;;8.93;;
7080;SDS011;3582;51.506;11.948;2023-04-19T01:13:43;10.77;;;8.90;;
7080;SDS011;3582;51.506;11.948;2023-04-19T01:16:09;13.77;;;9.30;;
7080;SDS011;3582;51.506;11.948;2023-04-19T01:18:35;13.27;;;8.23;;
7080;SDS011;3582;51.506;11.948;2023-04-19T01:21:03;10.05;;;8.50;;
7080;SDS011;3582;51.506;11.948;2023-04-19T01:23:30;10.10;;;8.85;;
7080;SDS011;3582;51.506;11.948;2023-04-19T01:25:56;8.73;;;7.93;;
7080;SDS011;3582;51.506;11.948;2023-04-19T01:28:22;9.20;;;8.07;;
7080;SDS011;3582;51.506;11.948;2023-04-19T01:30:48;9.10;;;8.10;;
7080;SDS011;3582;51.506;11.948;2023-04-19T01:33:15;14.35;;;9.25;;
7080;SDS011;3582;51.506;11.948;2023-04-19T01:35:41;11.10;;;8.25;;
7080;SDS011;3582;51.506;11.948;2023-04-19T01:38:07;11.90;;;10.70;;
7080;SDS011;3582;51.506;11.948;2023-04-19T01:40:33;10.90;;;8.93;;
7080;SDS011;3582;51.506;11.948;2023-04-19T01:42:59;10.70;;;8.43;;
7080;SDS011;3582;51.506;11.948;2023-04-19T01:45:25;10.23;;;9.17;;
7080;SDS011;3582;51.506;11.948;2023-04-19T01:47:51;11.37;;;9.50;;
7080;SDS011;3582;51.506;11.948;2023-04-19T01:50:17;15.73;;;9.50;;
7080;SDS011;3582;51.506;11.948;2023-04-19T01:52:43;11.80;;;9.43;;
7080;SDS011;3582;51.506;11.948;2023-04-19T01:55:08;12.60;;;8.90;;
7080;SDS011;3582;51.506;11.948;2023-04-19T01:57:34;17.43;;;9.87;;
7080;SDS011;3582;51.506;11.948;2023-04-19T02:00:00;14.30;;;8.70;;
7080;SDS011;3582;51.506;11.948;2023-04-19T02:02:27;9.85;;;8.15;;
7080;SDS011;3582;51.506;11.948;2023-04-19T02:04:53;12.03;;;8.57;;
7080;SDS011;3582;51.506;11.948;2023-04-19T02:07:19;10.20;;;8.05;;
7080;SDS011;3582;51.506;11.948;2023-04-19T02:09:45;7.70;;;6.97;;
7080;SDS011;3582;51.506;11.948;2023-04-19T02:12:11;8.65;;;7.40;;
7080;SDS011;3582;51.506;11.948;2023-04-19T02:14:37;16.30;;;8.30;;
7080;SDS011;3582;51.506;11.948;2023-04-19T02:17:02;9.20;;;6.70;;
7080;SDS011;3582;51.506;11.948;2023-04-19T02:19:28;12.83;;;7.53;;
7080;SDS011;3582;51.506;11.948;2023-04-19T02:21:54;11.90;;;7.13;;
7080;SDS011;3582;51.506;11.948;2023-04-19T02:24:22;10.68;;;6.93;;
7080;SDS011;3582;51.506;11.948;2023-04-19T02:26:48;7.40;;;6.60;;
7080;SDS011;3582;51.506;11.948;2023-04-19T02:29:14;9.80;;;7.68;;
7080;SDS011;3582;51.506;11.948;2023-04-19T02:31:41;16.55;;;8.80;;
7080;SDS011;3582;51.506;11.948;2023-04-19T02:34:09;7.60;;;6.13;;
7080;SDS011;3582;51.506;11.948;2023-04-19T02:36:35;9.07;;;7.10;;
7080;SDS011;3582;51.506;11.948;2023-04-19T02:39:00;6.40;;;5.53;;
7080;SDS011;3582;51.506;11.948;2023-04-19T02:41:26;11.00;;;7.10;;
7080;SDS011;3582;51.506;11.948;2023-04-19T02:43:52;9.00;;;5.80;;
7080;SDS011;3582;51.506;11.948;2023-04-19T02:46:18;13.73;;;6.83;;
7080;SDS011;3582;51.506;11.948;2023-04-19T02:48:44;12.30;;;6.03;;
7080;SDS011;3582;51.506;11.948;2023-04-19T02:51:14;7.53;;;6.50;;
7080;SDS011;3582;51.506;11.948;2023-04-19T02:53:40;6.30;;;5.60;;
7080;SDS011;3582;51.506;11.948;2023-04-19T02:56:06;9.10;;;6.43;;
7080;SDS011;3582;51.506;11.948;2023-04-19T02:58:33;7.25;;;5.60;;
7080;SDS011;3582;51.506;11.948;2023-04-19T03:00:58;10.07;;;6.40;;
7080;SDS011;3582;51.506;11.948;2023-04-19T03:03:24;6.23;;;5.60;;
7080;SDS011;3582;51.506;11.948;2023-04-19T03:05:50;5.60;;;5.10;;
7080;SDS011;3582;51.506;11.948;2023-04-19T03:08:16;6.50;;;5.88;;
7080;SDS011;3582;51.506;11.948;2023-04-19T03:10:42;8.63;;;5.90;;
7080;SDS011;3582;51.506;11.948;2023-04-19T03:13:08;8.30;;;5.97;;
7080;SDS011;3582;51.506;11.948;2023-04-19T03:15:34;7.70;;;5.37;;
7080;SDS011;3582;51.506;11.948;2023-04-19T03:18:00;7.27;;;5.77;;
7080;SDS011;3582;51.506;11.948;2023-04-19T03:20:26;6.87;;;5.00;;
7080;SDS011;3582;51.506;11.948;2023-04-19T03:22:52;9.77;;;5.83;;
7080;SDS011;3582;51.506;11.948;2023-04-19T03:25:18;5.40;;;4.90;;
7080;SDS011;3582;51.506;11.948;2023-04-19T03:27:44;8.30;;;5.13;;
7080;SDS011;3582;51.506;11.948;2023-04-19T03:30:12;6.57;;;5.15;;
7080;SDS011;3582;51.506;11.948;2023-04-19T03:32:38;5.57;;;5.05;;
7080;SDS011;3582;51.506;11.948;2023-04-19T03:35:04;6.03;;;5.38;;
7080;SDS011;3582;51.506;11.948;2023-04-19T03:37:30;5.93;;;5.05;;
7080;SDS011;3582;51.506;11.948;2023-04-19T03:39:56;6.33;;;5.20;;
7080;SDS011;3582;51.506;11.948;2023-04-19T03:42:22;8.30;;;5.07;;
7080;SDS011;3582;51.506;11.948;2023-04-19T03:44:48;11.30;;;5.73;;
7080;SDS011;3582;51.506;11.948;2023-04-19T03:47:14;5.47;;;4.97;;
7080;SDS011;3582;51.506;11.948;2023-04-19T03:49:40;6.10;;;5.50;;
7080;SDS011;3582;51.506;11.948;2023-04-19T03:52:06;8.53;;;5.30;;
7080;SDS011;3582;51.506;11.948;2023-04-19T03:54:32;7.57;;;4.83;;
7080;SDS011;3582;51.506;11.948;2023-04-19T03:56:57;6.33;;;5.30;;
7080;SDS011;3582;51.506;11.948;2023-04-19T03:59:24;6.25;;;5.03;;
7080;SDS011;3582;51.506;11.948;2023-04-19T04:01:50;6.73;;;6.00;;
7080;SDS011;3582;51.506;11.948;2023-04-19T04:04:16;8.90;;;5.70;;
7080;SDS011;3582;51.506;11.948;2023-04-19T04:06:42;5.95;;;4.70;;
7080;SDS011;3582;51.506;11.948;2023-04-19T04:09:08;5.47;;;4.80;;
7080;SDS011;3582;51.506;11.948;2023-04-19T04:11:34;7.20;;;5.17;;
7080;SDS011;3582;51.506;11.948;2023-04-19T04:14:00;5.30;;;4.80;;
7080;SDS011;3582;51.506;11.948;2023-04-19T04:16:25;8.17;;;5.37;;
7080;SDS011;3582;51.506;11.948;2023-04-19T04:18:51;5.90;;;4.73;;
7080;SDS011;3582;51.506;11.948;2023-04-19T04:21:17;5.03;;;4.53;;
7080;SDS011;3582;51.506;11.948;2023-04-19T04:23:43;12.53;;;5.17;;
7080;SDS011;3582;51.506;11.948;2023-04-19T04:26:11;6.53;;;5.22;;
7080;SDS011;3582;51.506;11.948;2023-04-19T04:28:37;6.35;;;4.70;;
7080;SDS011;3582;51.506;11.948;2023-04-19T04:31:03;6.40;;;5.90;;
7080;SDS011;3582;51.506;11.948;2023-04-19T04:33:29;10.68;;;6.28;;
7080;SDS011;3582;51.506;11.948;2023-04-19T04:35:55;7.65;;;5.22;;
7080;SDS011;3582;51.506;11.948;2023-04-19T04:38:23;6.40;;;5.25;;
7080;SDS011;3582;51.506;11.948;2023-04-19T04:40:49;6.50;;;5.75;;
7080;SDS011;3582;51.506;11.948;2023-04-19T04:43:19;6.38;;;4.97;;
7080;SDS011;3582;51.506;11.948;2023-04-19T04:45:45;6.07;;;5.07;;
7080;SDS011;3582;51.506;11.948;2023-04-19T04:48:11;6.80;;;4.95;;
7080;SDS011;3582;51.506;11.948;2023-04-19T04:50:37;9.50;;;5.65;;
7080;SDS011;3582;51.506;11.948;2023-04-19T04:53:03;5.40;;;4.85;;
7080;SDS011;3582;51.506;11.948;2023-04-19T04:55:29;4.57;;;4.13;;
7080;SDS011;3582;51.506;11.948;2023-04-19T04:57:55;4.80;;;4.20;;
7080;SDS011;3582;51.506;11.948;2023-04-19T05:00:22;6.40;;;4.63;;
7080;SDS011;3582;51.506;11.948;2023-04-19T05:02:48;15.88;;;4.80;;
7080;SDS011;3582;51.506;11.948;2023-04-19T05:05:13;6.60;;;4.20;;
7080;SDS011;3582;51.506;11.948;2023-04-19T05:07:39;5.50;;;4.40;;
7080;SDS011;3582;51.506;11.948;2023-04-19T05:10:07;4.95;;;4.13;;
7080;SDS011;3582;51.506;11.948;2023-04-19T05:12:33;7.82;;;5.03;;
7080;SDS011;3582;51.506;11.948;2023-04-19T05:14:59;4.68;;;3.80;;
7080;SDS011;3582;51.506;11.948;2023-04-19T05:17:24;6.10;;;4.93;;
7080;SDS011;3582;51.506;11.948;2023-04-19T05:19:50;5.17;;;4.37;;
7080;SDS011;3582;51.506;11.948;2023-04-19T05:22:16;6.27;;;3.60;;
7080;SDS011;3582;51.506;11.948;2023-04-19T05:24:42;6.83;;;4.50;;
7080;SDS011;3582;51.506;11.948;2023-04-19T05:27:08;4.45;;;3.90;;
7080;SDS011;3582;51.506;11.948;2023-04-19T05:29:35;4.68;;;3.95;;
7080;SDS011;3582;51.506;11.948;2023-04-19T05:32:01;9.63;;;4.37;;
7080;SDS011;3582;51.506;11.948;2023-04-19T05:34:27;4.80;;;4.40;;
7080;SDS011;3582;51.506;11.948;2023-04-19T05:36:53;4.63;;;3.77;;
7080;SDS011;3582;51.506;11.948;2023-04-19T05:39:19;6.07;;;5.43;;
7080;SDS011;3582;51.506;11.948;2023-04-19T05:41:45;5.97;;;4.22;;
7080;SDS011;3582;51.506;11.948;2023-04-19T05:44:10;6.23;;;4.20;;
7080;SDS011;3582;51.506;11.948;2023-04-19T05:46:36;6.77;;;3.70;;
7080;SDS011;3582;51.506;11.948;2023-04-19T05:49:02;7.00;;;3.93;;
7080;SDS011;3582;51.506;11.948;2023-04-19T05:51:28;5.23;;;3.63;;
7080;SDS011;3582;51.506;11.948;2023-04-19T05:53:55;4.30;;;4.00;;
7080;SDS011;3582;51.506;11.948;2023-04-19T05:56:21;6.03;;;4.13;;
7080;SDS011;3582;51.506;11.948;2023-04-19T05:58:47;8.13;;;5.50;;
7080;SDS011;3582;51.506;11.948;2023-04-19T06:01:13;3.67;;;3.37;;
7080;SDS011;3582;51.506;11.948;2023-04-19T06:03:40;4.80;;;3.65;;
7080;SDS011;3582;51.506;11.948;2023-04-19T06:06:06;4.43;;;3.90;;
7080;SDS011;3582;51.506;11.948;2023-04-19T06:08:32;7.28;;;3.95;;
7080;SDS011;3582;51.506;11.948;2023-04-19T06:10:58;8.00;;;3.50;;
7080;SDS011;3582;51.506;11.948;2023-04-19T06:13:24;3.25;;;3.00;;
7080;SDS011;3582;51.506;11.948;2023-04-19T06:15:50;3.80;;;3.50;;
7080;SDS011;3582;51.506;11.948;2023-04-19T06:18:16;5.50;;;3.83;;
7080;SDS011;3582;51.506;11.948;2023-04-19T06:20:42;4.37;;;3.40;;
7080;SDS011;3582;51.506;11.948;2023-04-19T06:23:08;4.20;;;3.70;;
7080;SDS011;3582;51.506;11.948;2023-04-19T06:25:34;4.43;;;3.47;;
7080;SDS011;3582;51.506;11.948;2023-04-19T06:28:00;3.85;;;3.45;;
7080;SDS011;3582;51.506;11.948;2023-04-19T06:30:26;6.57;;;4.10;;
7080;SDS011;3582;51.506;11.948;2023-04-19T06:32:52;5.33;;;3.97;;
7080;SDS011;3582;51.506;11.948;2023-04-19T06:35:18;4.85;;;4.45;;
7080;SDS011;3582;51.506;11.948;2023-04-19T06:37:43;7.18;;;3.95;;
7080;SDS011;3582;51.506;11.948;2023-04-19T06:40:10;5.03;;;3.65;;
7080;SDS011;3582;51.506;11.948;2023-04-19T06:42:36;2.88;;;2.67;;
7080;SDS011;3582;51.506;11.948;2023-04-19T06:45:02;4.70;;;3.45;;
7080;SDS011;3582;51.506;11.948;2023-04-19T06:47:28;5.65;;;3.80;;
7080;SDS011;3582;51.506;11.948;2023-04-19T06:49:55;4.68;;;3.78;;
7080;SDS011;3582;51.506;11.948;2023-04-19T06:52:21;4.18;;;3.60;;
7080;SDS011;3582;51.506;11.948;2023-04-19T06:54:48;8.15;;;4.55;;
7080;SDS011;3582;51.506;11.948;2023-04-19T06:57:15;7.95;;;4.47;;
7080;SDS011;3582;51.506;11.948;2023-04-19T06:59:41;7.07;;;4.22;;
7080;SDS011;3582;51.506;11.948;2023-04-19T07:02:07;6.40;;;3.33;;
7080;SDS011;3582;51.506;11.948;2023-04-19T07:04:33;5.90;;;3.73;;
7080;SDS011;3582;51.506;11.948;2023-04-19T07:06:59;7.67;;;3.70;;
7080;SDS011;3582;51.506;11.948;2023-04-19T07:09:25;3.47;;;3.17;;
7080;SDS011;3582;51.506;11.948;2023-04-19T07:11:51;3.70;;;3.40;;
7080;SDS011;3582;51.506;11.948;2023-04-19T07:14:17;3.97;;;3.50;;
7080;SDS011;3582;51.506;11.948;2023-04-19T07:16:43;3.05;;;2.85;;
7080;SDS011;3582;51.506;11.948;2023-04-19T07:19:09;6.30;;;3.85;;
7080;SDS011;3582;51.506;11.948;2023-04-19T07:21:35;10.13;;;4.00;;
7080;SDS011;3582;51.506;11.948;2023-04-19T07:24:03;5.20;;;3.72;;
7080;SDS011;3582;51.506;11.948;2023-04-19T07:26:29;4.27;;;3.60;;
7080;SDS011;3582;51.506;11.948;2023-04-19T07:28:55;4.55;;;3.15;;
7080;SDS011;3582;51.506;11.948;2023-04-19T07:31:22;8.88;;;4.78;;
7080;SDS011;3582;51.506;11.948;2023-04-19T07:33:49;5.00;;;3.20;;
7080;SDS011;3582;51.506;11.948;2023-04-19T07:36:15;9.77;;;4.47;;
7080;SDS011;3582;51.506;11.948;2023-04-19T07:38:41;4.83;;;4.43;;
7080;SDS011;3582;51.506;11.948;2023-04-19T07:41:07;8.70;;;3.90;;
7080;SDS011;3582;51.506;11.948;2023-04-19T07:43:33;4.47;;;3.20;;
7080;SDS011;3582;51.506;11.948;2023-04-19T07:45:59;5.07;;;4.13;;
7080;SDS011;3582;51.506;11.948;2023-04-19T07:48:25;3.47;;;3.17;;
7080;SDS011;3582;51.506;11.948;2023-04-19T07:50:51;5.53;;;3.70;;
7080;SDS011;3582;51.506;11.948;2023-04-19T07:53:17;5.30;;;4.40;;
7080;SDS011;3582;51.506;11.948;2023-04-19T07:55:43;4.70;;;4.30;;
7080;SDS011;3582;51.506;11.948;2023-04-19T07:58:09;5.00;;;3.53;;
7080;SDS011;3582;51.506;11.948;2023-04-19T08:00:35;4.25;;;3.83;;
7080;SDS011;3582;51.506;11.948;2023-04-19T08:03:02;7.93;;;3.90;;
7080;SDS011;3582;51.506;11.948;2023-04-19T08:05:28;5.25;;;3.65;;
7080;SDS011;3582;51.506;11.948;2023-04-19T08:07:55;3.97;;;3.00;;
7080;SDS011;3582;51.506;11.948;2023-04-19T08:10:21;6.38;;;3.65;;
7080;SDS011;3582;51.506;11.948;2023-04-19T08:12:47;3.80;;;3.42;;
7080;SDS011;3582;51.506;11.948;2023-04-19T08:15:14;3.53;;;3.22;;
7080;SDS011;3582;51.506;11.948;2023-04-19T08:17:40;3.60;;;3.30;;
7080;SDS011;3582;51.506;11.948;2023-04-19T08:20:08;4.18;;;3.70;;
7080;SDS011;3582;51.506;11.948;2023-04-19T08:22:34;6.32;;;3.83;;
7080;SDS011;3582;51.506;11.948;2023-04-19T08:25:01;4.68;;;3.45;;
7080;SDS011;3582;51.506;11.948;2023-04-19T08:27:27;5.18;;;3.50;;
7080;SDS011;3582;51.506;11.948;2023-04-19T08:29:53;3.70;;;3.05;;
7080;SDS011;3582;51.506;11.948;2023-04-19T08:32:20;4.00;;;3.20;;
7080;SDS011;3582;51.506;11.948;2023-04-19T08:34:46;4.70;;;2.88;;
7080;SDS011;3582;51.506;11.948;2023-04-19T08:37:12;3.10;;;2.87;;
7080;SDS011;3582;51.506;11.948;2023-04-19T08:39:38;4.47;;;3.27;;
7080;SDS011;3582;51.506;11.948;2023-04-19T08:42:05;4.67;;;3.50;;
7080;SDS011;3582;51.506;11.948;2023-04-19T08:44:31;60.85;;;11.43;;
7080;SDS011;3582;51.506;11.948;2023-04-19T08:46:58;5.15;;;3.20;;
7080;SDS011;3582;51.506;11.948;2023-04-19T08:49:26;5.30;;;3.50;;
7080;SDS011;3582;51.506;11.948;2023-04-19T08:51:52;11.30;;;4.25;;
7080;SDS011;3582;51.506;11.948;2023-04-19T08:54:19;6.57;;;3.65;;
7080;SDS011;3582;51.506;11.948;2023-04-19T08:56:46;6.13;;;3.13;;
7080;SDS011;3582;51.506;11.948;2023-04-19T08:59:12;5.18;;;3.88;;
7080;SDS011;3582;51.506;11.948;2023-04-19T09:01:38;4.40;;;3.70;;
7080;SDS011;3582;51.506;11.948;2023-04-19T09:04:04;4.13;;;3.40;;
7080;SDS011;3582;51.506;11.948;2023-04-19T09:06:35;7.50;;;4.05;;
7080;SDS011;3582;51.506;11.948;2023-04-19T09:11:42;3.72;;;3.42;;
7080;SDS011;3582;51.506;11.948;2023-04-19T09:14:12;4.07;;;3.67;;
7080;SDS011;3582;51.506;11.948;2023-04-19T09:16:38;3.50;;;3.28;;
7080;SDS011;3582;51.506;11.948;2023-04-19T09:19:05;5.97;;;3.80;;
7080;SDS011;3582;51.506;11.948;2023-04-19T09:21:33;5.05;;;3.55;;
7080;SDS011;3582;51.506;11.948;2023-04-19T09:23:59;7.45;;;3.40;;
7080;SDS011;3582;51.506;11.948;2023-04-19T09:26:26;3.60;;;3.30;;
7080;SDS011;3582;51.506;11.948;2023-04-19T09:28:56;4.55;;;3.97;;
7080;SDS011;3582;51.506;11.948;2023-04-19T09:31:22;6.32;;;3.83;;
7080;SDS011;3582;51.506;11.948;2023-04-19T09:33:48;4.90;;;3.28;;
7080;SDS011;3582;51.506;11.948;2023-04-19T09:36:25;4.83;;;3.37;;
7080;SDS011;3582;51.506;11.948;2023-04-19T09:38:52;3.83;;;3.42;;
7080;SDS011;3582;51.506;11.948;2023-04-19T09:41:17;3.00;;;2.80;;
7080;SDS011;3582;51.506;11.948;2023-04-19T09:43:43;4.50;;;3.97;;
7080;SDS011;3582;51.506;11.948;2023-04-19T09:48:55;3.97;;;3.67;;
7080;SDS011;3582;51.506;11.948;2023-04-19T09:51:40;6.87;;;3.67;;
7080;SDS011;3582;51.506;11.948;2023-04-19T09:54:07;5.43;;;3.20;;
7080;SDS011;3582;51.506;11.948;2023-04-19T09:56:34;3.45;;;3.15;;
7080;SDS011;3582;51.506;11.948;2023-04-19T09:59:01;4.47;;;3.80;;
7080;SDS011;3582;51.506;11.948;2023-04-19T10:01:27;7.97;;;3.80;;
7080;SDS011;3582;51.506;11.948;2023-04-19T10:03:54;3.73;;;3.43;;
7080;SDS011;3582;51.506;11.948;2023-04-19T10:06:20;5.80;;;3.92;;
7080;SDS011;3582;51.506;11.948;2023-04-19T10:08:48;3.70;;;3.20;;
7080;SDS011;3582;51.506;11.948;2023-04-19T10:11:14;4.03;;;3.63;;
7080;SDS011;3582;51.506;11.948;2023-04-19T10:13:41;3.40;;;2.80;;
7080;SDS011;3582;51.506;11.948;2023-04-19T10:16:08;4.20;;;2.87;;
7080;SDS011;3582;51.506;11.948;2023-04-19T10:18:34;4.20;;;3.27;;
7080;SDS011;3582;51.506;11.948;2023-04-19T10:21:02;9.00;;;3.20;;
7080;SDS011;3582;51.506;11.948;2023-04-19T10:23:28;7.23;;;2.57;;
7080;SDS011;3582;51.506;11.948;2023-04-19T10:25:56;3.90;;;3.37;;
7080;SDS011;3582;51.506;11.948;2023-04-19T10:28:23;4.37;;;3.20;;
7080;SDS011;3582;51.506;11.948;2023-04-19T10:33:27;5.23;;;4.17;;
7080;SDS011;3582;51.506;11.948;2023-04-19T10:35:55;5.83;;;4.07;;
7080;SDS011;3582;51.506;11.948;2023-04-19T10:38:34;5.27;;;3.90;;
7080;SDS011;3582;51.506;11.948;2023-04-19T10:41:00;33.90;;;7.83;;
7080;SDS011;3582;51.506;11.948;2023-04-19T10:43:33;3.97;;;3.67;;
7080;SDS011;3582;51.506;11.948;2023-04-19T10:48:33;3.90;;;3.57;;
7080;SDS011;3582;51.506;11.948;2023-04-19T10:53:48;4.30;;;3.70;;
7080;SDS011;3582;51.506;11.948;2023-04-19T10:56:15;7.93;;;4.00;;
7080;SDS011;3582;51.506;11.948;2023-04-19T11:01:39;12.63;;;3.33;;
7080;SDS011;3582;51.506;11.948;2023-04-19T11:06:35;6.73;;;3.60;;
7080;SDS011;3582;51.506;11.948;2023-04-19T11:09:01;4.20;;;3.50;;
7080;SDS011;3582;51.506;11.948;2023-04-19T11:11:33;5.67;;;3.47;;
7080;SDS011;3582;51.506;11.948;2023-04-19T11:13:59;4.83;;;3.40;;
7080;SDS011;3582;51.506;11.948;2023-04-19T11:16:26;6.93;;;3.03;;
7080;SDS011;3582;51.506;11.948;2023-04-19T11:18:52;5.10;;;4.10;;
7080;SDS011;3582;51.506;11.948;2023-04-19T11:21:19;3.00;;;2.80;;
7080;SDS011;3582;51.506;11.948;2023-04-19T11:23:46;2.80;;;2.60;;
7080;SDS011;3582;51.506;11.948;2023-04-19T11:26:13;3.20;;;3.00;;
7080;SDS011;3582;51.506;11.948;2023-04-19T11:28:40;6.33;;;3.87;;
7080;SDS011;3582;51.506;11.948;2023-04-19T11:31:06;8.20;;;3.20;;
7080;SDS011;3582;51.506;11.948;2023-04-19T11:33:35;5.30;;;4.20;;
7080;SDS011;3582;51.506;11.948;2023-04-19T11:36:01;3.77;;;3.13;;
7080;SDS011;3582;51.506;11.948;2023-04-19T11:38:28;4.00;;;3.60;;
7080;SDS011;3582;51.506;11.948;2023-04-19T11:40:57;4.30;;;3.90;;
7080;SDS011;3582;51.506;11.948;2023-04-19T11:43:23;7.00;;;3.53;;
7080;SDS011;3582;51.506;11.948;2023-04-19T11:45:56;3.60;;;3.30;;
7080;SDS011;3582;51.506;11.948;2023-04-19T11:48:28;7.13;;;3.63;;
7080;SDS011;3582;51.506;11.948;2023-04-19T11:50:56;4.20;;;3.77;;
7080;SDS011;3582;51.506;11.948;2023-04-19T11:53:23;6.50;;;4.03;;
7080;SDS011;3582;51.506;11.948;2023-04-19T11:55:49;6.80;;;4.07;;
7080;SDS011;3582;51.506;11.948;2023-04-19T12:00:48;4.10;;;3.50;;
7080;SDS011;3582;51.506;11.948;2023-04-19T12:03:14;5.07;;;4.50;;
7080;SDS011;3582;51.506;11.948;2023-04-19T12:05:50;3.93;;;3.50;;
7080;SDS011;3582;51.506;11.948;2023-04-19T12:08:16;10.70;;;4.20;;
7080;SDS011;3582;51.506;11.948;2023-04-19T12:10:54;5.40;;;4.00;;
7080;SDS011;3582;51.506;11.948;2023-04-19T12:13:21;4.70;;;4.40;;
7080;SDS011;3582;51.506;11.948;2023-04-19T12:15:47;5.20;;;4.17;;
7080;SDS011;3582;51.506;11.948;2023-04-19T12:18:13;4.97;;;4.47;;
7080;SDS011;3582;51.506;11.948;2023-04-19T12:20:43;4.80;;;4.27;;
7080;SDS011;3582;51.506;11.948;2023-04-19T12:23:10;4.07;;;3.67;;
7080;SDS011;3582;51.506;11.948;2023-04-19T12:25:38;8.10;;;3.90;;
7080;SDS011;3582;51.506;11.948;2023-04-19T12:28:05;4.33;;;4.00;;
7080;SDS011;3582;51.506;11.948;2023-04-19T12:30:31;4.93;;;4.27;;
7080;SDS011;3582;51.506;11.948;2023-04-19T12:32:57;9.03;;;5.60;;
7080;SDS011;3582;51.506;11.948;2023-04-19T12:35:24;7.93;;;4.13;;
7080;SDS011;3582;51.506;11.948;2023-04-19T12:37:52;4.70;;;3.80;;
7080;SDS011;3582;51.506;11.948;2023-04-19T12:40:18;4.90;;;4.50;;
7080;SDS011;3582;51.506;11.948;2023-04-19T12:42:44;4.83;;;4.27;;
7080;SDS011;3582;51.506;11.948;2023-04-19T12:45:11;4.63;;;3.40;;
7080;SDS011;3582;51.506;11.948;2023-04-19T12:47:37;4.40;;;3.90;;
7080;SDS011;3582;51.506;11.948;2023-04-19T12:50:03;4.23;;;3.83;;
7080;SDS011;3582;51.506;11.948;2023-04-19T12:52:29;4.80;;;3.73;;
7080;SDS011;3582;51.506;11.948;2023-04-19T12:54:55;6.80;;;4.73;;
7080;SDS011;3582;51.506;11.948;2023-04-19T12:57:21;3.60;;;3.30;;
7080;SDS011;3582;51.506;11.948;2023-04-19T12:59:47;5.57;;;3.27;;
7080;SDS011;3582;51.506;11.948;2023-04-19T13:02:13;3.80;;;3.40;;
7080;SDS011;3582;51.506;11.948;2023-04-19T13:04:39;5.20;;;3.47;;
7080;SDS011;3582;51.506;11.948;2023-04-19T13:07:05;5.90;;;3.53;;
7080;SDS011;3582;51.506;11.948;2023-04-19T13:09:31;5.07;;;4.03;;
7080;SDS011;3582;51.506;11.948;2023-04-19T13:11:57;4.53;;;3.70;;
7080;SDS011;3582;51.506;11.948;2023-04-19T13:14:24;4.37;;;3.97;;
7080;SDS011;3582;51.506;11.948;2023-04-19T13:16:51;6.43;;;4.30;;
7080;SDS011;3582;51.506;11.948;2023-04-19T13:19:16;5.80;;;3.77;;
7080;SDS011;3582;51.506;11.948;2023-04-19T13:21:43;3.20;;;3.00;;
7080;SDS011;3582;51.506;11.948;2023-04-19T13:24:09;4.07;;;3.77;;
7080;SDS011;3582;51.506;11.948;2023-04-19T13:26:35;4.00;;;3.57;;
7080;SDS011;3582;51.506;11.948;2023-04-19T13:29:01;5.30;;;4.20;;
7080;SDS011;3582;51.506;11.948;2023-04-19T13:31:27;3.37;;;3.07;;
7080;SDS011;3582;51.506;11.948;2023-04-19T13:33:53;5.53;;;3.20;;
7080;SDS011;3582;51.506;11.948;2023-04-19T13:36:20;5.23;;;3.63;;
7080;SDS011;3582;51.506;11.948;2023-04-19T13:38:46;4.80;;;4.10;;
7080;SDS011;3582;51.506;11.948;2023-04-19T13:41:12;6.10;;;4.47;;
7080;SDS011;3582;51.506;11.948;2023-04-19T13:43:38;5.33;;;3.40;;
7080;SDS011;3582;51.506;11.948;2023-04-19T13:46:04;7.30;;;4.33;;
7080;SDS011;3582;51.506;11.948;2023-04-19T13:48:30;3.60;;;3.30;;
7080;SDS011;3582;51.506;11.948;2023-04-19T13:50:57;7.23;;;4.40;;
7080;SDS011;3582;51.506;11.948;2023-04-19T13:53:23;4.97;;;3.80;;
7080;SDS011;3582;51.506;11.948;2023-04-19T13:55:49;3.80;;;3.37;;
7080;SDS011;3582;51.506;11.948;2023-04-19T13:58:16;5.90;;;4.20;;
7080;SDS011;3582;51.506;11.948;2023-04-19T14:00:42;3.97;;;3.40;;
7080;SDS011;3582;51.506;11.948;2023-04-19T14:03:08;7.77;;;3.63;;
7080;SDS011;3582;51.506;11.948;2023-04-19T14:05:34;4.67;;;4.27;;
7080;SDS011;3582;51.506;11.948;2023-04-19T14:08:00;6.17;;;3.70;;
7080;SDS011;3582;51.506;11.948;2023-04-19T14:10:26;4.13;;;3.70;;
7080;SDS011;3582;51.506;11.948;2023-04-19T14:12:52;4.13;;;3.60;;
7080;SDS011;3582;51.506;11.948;2023-04-19T14:15:18;4.00;;;3.60;;
7080;SDS011;3582;51.506;11.948;2023-04-19T14:17:45;4.13;;;3.73;;
7080;SDS011;3582;51.506;11.948;2023-04-19T14:20:11;5.03;;;4.53;;
7080;SDS011;3582;51.506;11.948;2023-04-19T14:22:37;3.80;;;3.50;;
7080;SDS011;3582;51.506;11.948;2023-04-19T14:25:03;3.83;;;3.43;;
7080;SDS011;3582;51.506;11.948;2023-04-19T14:27:29;6.10;;;4.77;;
7080;SDS011;3582;51.506;11.948;2023-04-19T14:29:55;4.53;;;3.53;;
7080;SDS011;3582;51.506;11.948;2023-04-19T14:32:21;4.17;;;3.63;;
7080;SDS011;3582;51.506;11.948;2023-04-19T14:34:47;5.30;;;4.17;;
7080;SDS011;3582;51.506;11.948;2023-04-19T14:37:13;4.10;;;3.77;;
7080;SDS011;3582;51.506;11.948;2023-04-19T14:39:39;4.33;;;3.73;;
7080;SDS011;3582;51.506;11.948;2023-04-19T14:42:05;4.37;;;4.07;;
7080;SDS011;3582;51.506;11.948;2023-04-19T14:44:31;4.10;;;3.40;;
7080;SDS011;3582;51.506;11.948;2023-04-19T14:46:57;6.40;;;4.50;;
7080;SDS011;3582;51.506;11.948;2023-04-19T14:49:22;5.20;;;4.40;;
7080;SDS011;3582;51.506;11.948;2023-04-19T14:51:50;4.37;;;3.97;;
7080;SDS011;3582;51.506;11.948;2023-04-19T14:54:16;8.20;;;5.20;;
7080;SDS011;3582;51.506;11.948;2023-04-19T14:56:42;5.33;;;3.53;;
7080;SDS011;3582;51.506;11.948;2023-04-19T14:59:08;5.13;;;4.60;;
7080;SDS011;3582;51.506;11.948;2023-04-19T15:01:34;4.40;;;4.00;;
7080;SDS011;3582;51.506;11.948;2023-04-19T15:04:00;5.60;;;5.10;;
7080;SDS011;3582;51.506;11.948;2023-04-19T15:06:26;6.33;;;4.30;;
7080;SDS011;3582;51.506;11.948;2023-04-19T15:08:52;5.40;;;4.40;;
7080;SDS011;3582;51.506;11.948;2023-04-19T15:11:18;9.17;;;4.53;;
7080;SDS011;3582;51.506;11.948;2023-04-19T15:13:44;7.43;;;4.33;;
7080;SDS011;3582;51.506;11.948;2023-04-19T15:16:10;6.23;;;4.20;;